createdAt,value
2023-02-16T00:00:45.578Z,35.20
2023-02-16T00:03:37.684Z,37.00
2023-02-16T00:06:14.543Z,31.50
2023-02-16T00:08:51.683Z,44.10
2023-02-16T00:11:46.654Z,44.60
2023-02-16T00:14:22.789Z,43.10
2023-02-16T00:16:55.992Z,44.00
2023-02-16T00:19:35.569Z,49.00
2023-02-16T00:22:11.359Z,40.30
2023-02-16T00:24:43.744Z,41.70
2023-02-16T00:27:19.294Z,45.10
2023-02-16T00:29:52.226Z,46.10
2023-02-16T00:32:24.660Z,45.20
2023-02-16T00:34:56.771Z,40.60
2023-02-16T00:37:29.000Z,38.70
2023-02-16T00:40:03.892Z,31.90
2023-02-16T00:42:37.177Z,36.80
2023-02-16T00:45:20.138Z,38.40
2023-02-16T00:47:55.813Z,41.80
2023-02-16T00:50:32.264Z,38.80
2023-02-16T00:53:05.022Z,36.80
2023-02-16T00:55:39.614Z,36.50
2023-02-16T00:58:19.893Z,35.00
2023-02-16T01:00:54.993Z,46.10
2023-02-16T01:03:30.044Z,41.00
2023-02-16T01:06:16.393Z,42.30
2023-02-16T01:09:08.545Z,38.70
2023-02-16T01:11:40.973Z,37.20
2023-02-16T01:14:15.493Z,37.40
2023-02-16T01:16:47.913Z,41.40
2023-02-16T01:19:20.137Z,39.90
2023-02-16T01:21:52.662Z,39.40
2023-02-16T01:24:24.929Z,41.40
2023-02-16T01:26:57.256Z,34.30
2023-02-16T01:29:29.528Z,30.10
2023-02-16T01:32:01.886Z,41.70
2023-02-16T01:34:34.141Z,40.50
2023-02-16T01:37:06.529Z,38.90
2023-02-16T01:39:40.098Z,41.70
2023-02-16T01:42:31.010Z,38.30
2023-02-16T01:45:10.952Z,39.60
2023-02-16T01:47:47.964Z,38.40
2023-02-16T01:50:23.268Z,38.70
2023-02-16T01:53:01.590Z,42.20
2023-02-16T01:55:38.415Z,36.20
2023-02-16T01:58:20.205Z,42.50
2023-02-16T02:01:27.259Z,34.90
2023-02-16T02:06:48.275Z,33.50
2023-02-16T02:09:26.627Z,39.00
2023-02-16T02:12:05.312Z,43.10
2023-02-16T02:14:41.365Z,41.40
2023-02-16T02:17:17.894Z,41.10
2023-02-16T02:19:58.548Z,37.40
2023-02-16T02:23:16.656Z,37.70
2023-02-16T02:26:23.088Z,35.30
2023-02-16T02:29:08.299Z,36.40
2023-02-16T02:31:56.756Z,43.30
2023-02-16T02:34:41.928Z,32.00
2023-02-16T02:37:22.450Z,40.00
2023-02-16T02:40:03.527Z,41.20
2023-02-16T02:42:45.576Z,35.90
2023-02-16T02:45:22.888Z,40.60
2023-02-16T02:47:55.704Z,39.20
2023-02-16T02:51:16.353Z,36.00
2023-02-16T02:54:12.408Z,35.40
2023-02-16T02:57:08.504Z,30.70
2023-02-16T03:00:03.220Z,36.00
2023-02-16T03:02:38.232Z,40.30
2023-02-16T03:05:13.325Z,34.40
2023-02-16T03:07:49.146Z,34.40
2023-02-16T03:10:43.013Z,39.10
2023-02-16T03:13:22.347Z,36.20
2023-02-16T03:15:57.632Z,41.40
2023-02-16T03:18:49.236Z,39.80
2023-02-16T03:21:39.446Z,37.20
2023-02-16T03:24:33.074Z,38.40
2023-02-16T03:27:23.425Z,37.60
2023-02-16T03:29:57.276Z,37.50
2023-02-16T03:32:30.255Z,39.40
2023-02-16T03:35:02.596Z,40.70
2023-02-16T03:37:35.313Z,35.90
2023-02-16T03:40:29.433Z,38.30
2023-02-16T03:43:03.346Z,39.60
2023-02-16T03:45:38.545Z,32.10
2023-02-16T03:48:11.688Z,39.40
2023-02-16T03:50:43.839Z,38.80
2023-02-16T03:53:18.212Z,40.70
2023-02-16T03:55:51.158Z,39.50
2023-02-16T03:58:25.842Z,37.70
2023-02-16T04:00:59.190Z,38.10
2023-02-16T04:03:31.718Z,40.50
2023-02-16T04:06:04.412Z,41.90
2023-02-16T04:08:37.675Z,41.60
2023-02-16T04:11:24.017Z,38.00
2023-02-16T04:13:56.361Z,40.20
2023-02-16T04:16:28.677Z,40.80
2023-02-16T04:19:00.906Z,38.70
2023-02-16T04:21:33.279Z,41.00
2023-02-16T04:24:06.482Z,35.30
2023-02-16T04:26:39.769Z,41.10
2023-02-16T04:29:12.047Z,35.30
2023-02-16T04:31:44.722Z,33.70
2023-02-16T04:34:17.092Z,40.00
2023-02-16T04:36:49.869Z,37.30
2023-02-16T04:39:22.318Z,39.40
2023-02-16T04:41:55.029Z,33.30
2023-02-16T04:44:27.191Z,26.50
2023-02-16T04:46:59.458Z,29.10
2023-02-16T04:49:31.740Z,38.80
2023-02-16T04:52:04.618Z,41.10
2023-02-16T04:54:37.811Z,44.40
2023-02-16T04:57:10.915Z,48.90
2023-02-16T04:59:43.011Z,68.30
2023-02-16T05:02:15.381Z,43.30
2023-02-16T05:04:47.435Z,41.00
2023-02-16T05:07:19.602Z,46.80
2023-02-16T05:09:51.955Z,44.90
2023-02-16T05:12:42.056Z,49.10
2023-02-16T05:15:14.813Z,39.20
2023-02-16T05:17:47.593Z,41.90
2023-02-16T05:20:19.872Z,34.70
2023-02-16T05:22:52.436Z,48.90
2023-02-16T05:25:24.549Z,43.60
2023-02-16T05:27:56.662Z,40.80
2023-02-16T05:30:29.007Z,40.80
2023-02-16T05:33:01.767Z,37.90
2023-02-16T05:35:34.475Z,38.30
2023-02-16T05:38:06.941Z,39.80
2023-02-16T05:40:39.592Z,40.70
2023-02-16T05:43:11.732Z,31.00
2023-02-16T05:45:43.927Z,36.50
2023-02-16T05:48:16.081Z,37.30
2023-02-16T05:50:48.294Z,35.10
2023-02-16T05:53:20.417Z,35.40
2023-02-16T05:55:52.631Z,37.80
2023-02-16T05:58:24.843Z,35.80
2023-02-16T06:00:58.504Z,37.80
2023-02-16T06:03:31.206Z,37.90
2023-02-16T06:06:05.141Z,42.80
2023-02-16T06:08:40.016Z,32.70
2023-02-16T06:11:28.436Z,39.00
2023-02-16T06:14:01.896Z,35.30
2023-02-16T06:16:36.151Z,39.50
2023-02-16T06:19:09.727Z,31.70
2023-02-16T06:21:42.444Z,41.40
2023-02-16T06:24:15.690Z,40.20
2023-02-16T06:26:48.172Z,39.10
2023-02-16T06:29:20.393Z,35.00
2023-02-16T06:31:52.625Z,33.50
2023-02-16T06:34:25.010Z,34.10
2023-02-16T06:36:57.315Z,40.00
2023-02-16T06:39:29.548Z,41.60
2023-02-16T06:42:03.456Z,41.70
2023-02-16T06:44:35.873Z,34.50
2023-02-16T06:47:08.052Z,37.90
2023-02-16T06:49:40.230Z,42.20
2023-02-16T06:52:12.604Z,38.30
2023-02-16T06:54:45.490Z,32.30
2023-02-16T06:57:18.328Z,32.80
2023-02-16T06:59:50.714Z,30.70
2023-02-16T07:02:23.312Z,37.60
2023-02-16T07:04:55.946Z,38.40
2023-02-16T07:07:28.739Z,28.60
2023-02-16T07:10:03.186Z,31.20
2023-02-16T07:12:35.365Z,32.70
2023-02-16T07:15:08.747Z,27.90
2023-02-16T07:17:41.651Z,39.10
2023-02-16T07:20:14.694Z,35.10
2023-02-16T07:22:48.009Z,33.90
2023-02-16T07:25:20.365Z,34.50
2023-02-16T07:27:54.922Z,33.50
2023-02-16T07:30:27.031Z,30.30
2023-02-16T07:33:00.103Z,30.00
2023-02-16T07:35:32.731Z,33.00
2023-02-16T07:38:05.857Z,29.60
2023-02-16T07:40:38.194Z,38.90
2023-02-16T07:43:11.331Z,41.90
2023-02-16T07:45:50.844Z,43.60
2023-02-16T07:48:23.292Z,33.00
2023-02-16T07:51:02.514Z,33.00
2023-02-16T07:53:38.951Z,31.10
2023-02-16T07:56:20.124Z,41.90
2023-02-16T07:59:05.687Z,44.60
2023-02-16T08:01:53.827Z,34.40
2023-02-16T08:04:29.454Z,36.10
2023-02-16T08:07:01.715Z,34.30
2023-02-16T08:09:34.234Z,32.90
2023-02-16T08:12:11.644Z,32.00
2023-02-16T08:14:47.256Z,35.30
2023-02-16T08:17:22.193Z,28.50
2023-02-16T08:19:54.363Z,33.10
2023-02-16T08:22:26.517Z,26.30
2023-02-16T08:24:59.631Z,25.90
2023-02-16T08:27:32.015Z,31.40
2023-02-16T08:30:04.194Z,28.80
2023-02-16T08:32:36.959Z,26.70
2023-02-16T08:35:14.293Z,28.40
2023-02-16T08:37:47.463Z,29.30
2023-02-16T08:40:24.541Z,27.80
2023-02-16T08:42:56.874Z,27.40
2023-02-16T08:45:29.799Z,25.90
2023-02-16T08:48:02.452Z,27.60
2023-02-16T08:50:34.554Z,26.10
2023-02-16T08:53:06.613Z,23.90
2023-02-16T08:55:39.306Z,30.60
2023-02-16T08:58:11.555Z,28.00
2023-02-16T09:00:44.502Z,24.40
2023-02-16T09:03:19.563Z,27.10
2023-02-16T09:05:53.589Z,24.40
2023-02-16T09:08:26.552Z,28.10
2023-02-16T09:11:02.551Z,29.20
2023-02-16T09:13:41.107Z,26.80
2023-02-16T09:16:16.081Z,23.50
2023-02-16T09:18:49.644Z,23.50
2023-02-16T09:21:25.619Z,21.60
2023-02-16T09:23:59.454Z,28.40
2023-02-16T09:26:34.798Z,28.80
2023-02-16T09:29:08.200Z,27.30
2023-02-16T09:31:40.690Z,28.30
2023-02-16T09:34:20.335Z,25.50
2023-02-16T09:36:54.041Z,25.30
2023-02-16T09:39:27.039Z,26.30
2023-02-16T09:42:21.048Z,25.10
2023-02-16T09:45:00.130Z,27.90
2023-02-16T09:47:36.146Z,30.00
2023-02-16T09:50:27.737Z,26.70
2023-02-16T09:53:20.265Z,29.20
2023-02-16T09:56:03.500Z,24.80
2023-02-16T09:58:45.431Z,23.80
2023-02-16T10:01:31.825Z,24.40
2023-02-16T10:04:24.300Z,34.10
2023-02-16T10:07:06.537Z,26.20
2023-02-16T10:09:41.096Z,24.90
2023-02-16T10:12:19.650Z,22.70
2023-02-16T10:14:59.407Z,31.60
2023-02-16T10:17:39.330Z,23.00
2023-02-16T10:20:23.941Z,27.40
2023-02-16T10:23:02.462Z,25.30
2023-02-16T10:25:44.149Z,26.30
2023-02-16T10:28:22.650Z,24.70
2023-02-16T10:31:03.653Z,27.90
2023-02-16T10:33:43.967Z,26.60
2023-02-16T10:36:29.006Z,28.60
2023-02-16T10:39:09.814Z,32.60
2023-02-16T10:41:51.097Z,30.50
2023-02-16T10:44:35.349Z,33.20
2023-02-16T10:47:16.467Z,25.60
2023-02-16T10:49:50.798Z,59.30
2023-02-16T10:52:26.056Z,31.90
2023-02-16T10:54:58.684Z,31.90
2023-02-16T10:57:33.761Z,30.10
2023-02-16T11:00:12.257Z,39.40
2023-02-16T11:02:48.475Z,29.50
2023-02-16T11:05:38.183Z,24.40
2023-02-16T11:08:14.269Z,30.80
2023-02-16T11:13:30.019Z,27.00
2023-02-16T11:16:07.076Z,24.60
2023-02-16T11:18:44.582Z,29.50
2023-02-16T11:21:17.234Z,28.60
2023-02-16T11:24:02.315Z,28.20
2023-02-16T11:26:34.341Z,31.20
2023-02-16T11:29:21.639Z,33.00
2023-02-16T11:31:54.005Z,30.80
2023-02-16T11:34:33.405Z,28.90
2023-02-16T11:37:10.189Z,32.70
2023-02-16T11:39:49.899Z,31.30
2023-02-16T11:42:35.279Z,28.20
2023-02-16T11:45:09.842Z,31.60
2023-02-16T11:47:45.070Z,32.20
2023-02-16T11:50:29.960Z,35.80
2023-02-16T11:53:17.751Z,36.60
2023-02-16T11:55:51.604Z,34.40
2023-02-16T11:58:27.668Z,36.90
2023-02-16T12:01:11.521Z,46.80
2023-02-16T12:04:05.019Z,27.40
2023-02-16T12:06:56.691Z,33.70
2023-02-16T12:09:37.605Z,36.10
2023-02-16T12:12:17.598Z,31.50
2023-02-16T12:15:03.514Z,37.20
2023-02-16T12:18:15.899Z,55.00
2023-02-16T12:20:57.254Z,41.30
2023-02-16T12:23:38.358Z,29.60
2023-02-16T12:26:39.316Z,32.70
2023-02-16T12:29:41.648Z,32.10
2023-02-16T12:32:30.496Z,28.80
2023-02-16T12:35:22.038Z,25.20
2023-02-16T12:38:03.734Z,37.50
2023-02-16T12:40:47.039Z,29.30
2023-02-16T12:43:41.901Z,29.60
2023-02-16T12:46:20.745Z,30.20
2023-02-16T12:48:59.017Z,25.00
2023-02-16T12:51:36.795Z,34.60
2023-02-16T12:54:17.621Z,29.00
2023-02-16T12:56:57.470Z,30.60
2023-02-16T12:59:40.638Z,29.50
2023-02-16T13:02:19.788Z,32.60
2023-02-16T13:05:00.428Z,25.20
2023-02-16T13:07:37.481Z,26.30
2023-02-16T13:10:19.631Z,25.70
2023-02-16T13:12:59.282Z,28.50
2023-02-16T13:15:44.808Z,28.90
2023-02-16T13:18:25.523Z,53.50
2023-02-16T13:21:04.020Z,41.20
2023-02-16T13:23:51.486Z,36.10
2023-02-16T13:26:48.471Z,41.30
2023-02-16T13:29:49.399Z,32.90
2023-02-16T13:32:56.165Z,38.30
2023-02-16T13:35:51.893Z,34.70
2023-02-16T13:38:46.664Z,29.10
2023-02-16T13:41:57.588Z,26.80
2023-02-16T13:44:38.448Z,28.10
2023-02-16T13:47:28.085Z,23.00
2023-02-16T13:50:03.069Z,23.20
2023-02-16T13:52:40.060Z,26.30
2023-02-16T13:55:27.100Z,24.50
2023-02-16T13:58:04.549Z,26.90
2023-02-16T14:00:42.106Z,26.60
2023-02-16T14:03:37.731Z,28.00
2023-02-16T14:06:34.170Z,26.80
2023-02-16T14:09:47.038Z,26.80
2023-02-16T14:12:24.399Z,24.50
2023-02-16T14:15:02.426Z,28.80
2023-02-16T14:17:37.214Z,29.80
2023-02-16T14:20:30.294Z,27.20
2023-02-16T14:23:03.828Z,24.70
2023-02-16T14:25:41.616Z,20.30
2023-02-16T14:28:50.587Z,25.00
2023-02-16T14:31:25.484Z,22.60
2023-02-16T14:34:15.108Z,22.80
2023-02-16T14:37:17.665Z,22.10
2023-02-16T14:40:07.365Z,22.50
2023-02-16T14:42:44.013Z,21.20
2023-02-16T14:48:17.278Z,24.30
2023-02-16T14:51:10.442Z,23.10
2023-02-16T14:54:11.443Z,23.00
2023-02-16T14:56:46.787Z,21.10
2023-02-16T14:59:31.905Z,19.80
2023-02-16T15:02:24.270Z,20.80
2023-02-16T15:04:57.168Z,32.10
2023-02-16T15:07:35.138Z,36.90
2023-02-16T15:10:10.323Z,37.50
2023-02-16T15:12:44.120Z,31.30
2023-02-16T15:15:24.013Z,26.80
2023-02-16T15:17:57.038Z,28.60
2023-02-16T15:20:34.181Z,24.80
2023-02-16T15:23:08.633Z,35.80
2023-02-16T15:25:42.314Z,32.60
2023-02-16T15:28:26.175Z,43.50
2023-02-16T15:31:00.994Z,72.70
2023-02-16T15:33:37.391Z,76.90
2023-02-16T15:36:14.427Z,63.40
2023-02-16T15:38:58.652Z,35.20
2023-02-16T15:41:33.536Z,44.70
2023-02-16T15:44:07.871Z,63.50
2023-02-16T15:46:43.872Z,95.20
2023-02-16T15:49:22.626Z,102.40
2023-02-16T15:51:55.510Z,44.80
2023-02-16T15:54:31.268Z,84.60
2023-02-16T15:57:06.886Z,75.80
2023-02-16T15:59:42.416Z,126.50
2023-02-16T16:02:18.717Z,91.10
2023-02-16T16:04:55.106Z,98.40
2023-02-16T16:07:30.768Z,84.10
2023-02-16T16:10:04.212Z,62.90
2023-02-16T16:12:37.648Z,54.40
2023-02-16T16:15:16.076Z,56.30
2023-02-16T16:17:48.566Z,62.20
2023-02-16T16:20:34.054Z,50.60
2023-02-16T16:23:22.586Z,71.70
2023-02-16T16:28:38.170Z,84.50
2023-02-16T16:31:13.816Z,76.50
2023-02-16T16:33:58.795Z,98.30
2023-02-16T16:36:36.910Z,79.40
2023-02-16T16:39:25.706Z,77.70
2023-02-16T16:42:22.522Z,78.20
2023-02-16T16:45:01.353Z,89.60
2023-02-16T16:47:37.489Z,76.00
2023-02-16T16:50:32.346Z,67.20
2023-02-16T16:55:37.350Z,87.70
2023-02-16T16:58:11.712Z,87.40
2023-02-16T17:00:44.078Z,79.60
2023-02-16T17:03:18.942Z,68.00
2023-02-16T17:05:51.285Z,57.70
2023-02-16T17:08:23.673Z,86.70
2023-02-16T17:10:56.597Z,84.20
2023-02-16T17:13:29.893Z,93.50
2023-02-16T17:16:05.426Z,106.20
2023-02-16T17:18:37.735Z,217.00
2023-02-16T17:21:11.918Z,991.20
2023-02-16T17:23:52.502Z,921.10
2023-02-16T17:26:26.067Z,695.30
2023-02-16T17:28:58.627Z,461.00
2023-02-16T17:31:31.649Z,152.60
2023-02-16T17:34:04.565Z,90.10
2023-02-16T17:36:38.690Z,98.70
2023-02-16T17:39:11.125Z,87.70
2023-02-16T17:41:43.611Z,83.20
2023-02-16T17:44:15.872Z,93.10
2023-02-16T17:46:48.768Z,93.40
2023-02-16T17:49:21.489Z,84.80
2023-02-16T17:51:54.376Z,75.40
2023-02-16T17:54:26.914Z,96.90
2023-02-16T17:56:59.555Z,111.00
2023-02-16T17:59:34.252Z,97.70
2023-02-16T18:02:06.892Z,127.50
2023-02-16T18:04:41.282Z,104.10
2023-02-16T18:07:15.505Z,83.70
2023-02-16T18:09:48.259Z,85.10
2023-02-16T18:12:20.397Z,82.10
2023-02-16T18:14:52.694Z,71.30
2023-02-16T18:17:24.827Z,63.00
2023-02-16T18:19:56.893Z,62.10
2023-02-16T18:22:30.490Z,66.40
2023-02-16T18:25:02.627Z,78.30
2023-02-16T18:27:35.532Z,76.70
2023-02-16T18:30:10.088Z,65.10
2023-02-16T18:32:43.365Z,62.30
2023-02-16T18:35:17.253Z,66.90
2023-02-16T18:37:50.043Z,63.90
2023-02-16T18:40:23.115Z,63.10
2023-02-16T18:42:56.948Z,55.20
2023-02-16T18:45:29.139Z,57.30
2023-02-16T18:48:01.412Z,60.50
2023-02-16T18:50:33.928Z,56.30
2023-02-16T18:53:06.739Z,56.10
2023-02-16T18:55:39.093Z,49.60
2023-02-16T18:58:12.976Z,43.20
2023-02-16T19:00:45.473Z,45.00
2023-02-16T19:03:18.006Z,46.90
2023-02-16T19:05:50.613Z,56.40
2023-02-16T19:08:24.829Z,59.20
2023-02-16T19:10:57.534Z,53.70
2023-02-16T19:13:29.943Z,56.30
2023-02-16T19:16:02.042Z,55.80
2023-02-16T19:18:34.654Z,70.50
2023-02-16T19:21:13.357Z,74.70
2023-02-16T19:23:46.072Z,79.20
2023-02-16T19:26:19.305Z,81.90
2023-02-16T19:28:54.082Z,79.50
2023-02-16T19:31:28.605Z,98.80
2023-02-16T19:34:01.739Z,118.30
2023-02-16T19:36:34.469Z,112.60
2023-02-16T19:39:10.039Z,93.60
2023-02-16T19:41:44.301Z,79.10
2023-02-16T19:44:17.425Z,142.30
2023-02-16T19:46:49.763Z,239.30
2023-02-16T19:49:22.060Z,115.60
2023-02-16T19:51:55.943Z,122.50
2023-02-16T19:54:29.949Z,79.40
2023-02-16T19:57:02.529Z,91.70
2023-02-16T19:59:35.503Z,77.10
2023-02-16T20:02:07.927Z,77.30
2023-02-16T20:04:40.354Z,74.80
2023-02-16T20:07:13.144Z,66.40
2023-02-16T20:09:45.837Z,69.20
2023-02-16T20:12:18.130Z,79.10
2023-02-16T20:14:50.421Z,71.90
2023-02-16T20:17:22.739Z,69.50
2023-02-16T20:19:55.419Z,73.40
2023-02-16T20:22:28.530Z,69.60
2023-02-16T20:25:00.681Z,70.70
2023-02-16T20:27:32.952Z,66.20
2023-02-16T20:30:06.610Z,67.30
2023-02-16T20:32:39.228Z,72.20
2023-02-16T20:35:12.016Z,68.00
2023-02-16T20:37:44.908Z,78.90
2023-02-16T20:40:20.508Z,73.40
2023-02-16T20:42:52.925Z,72.70
2023-02-16T20:45:25.420Z,69.30
2023-02-16T20:47:57.784Z,76.10
2023-02-16T20:50:30.404Z,76.00
2023-02-16T20:53:02.836Z,59.10
2023-02-16T20:55:35.234Z,68.20
2023-02-16T20:58:07.620Z,63.20
2023-02-16T21:00:40.126Z,62.50
2023-02-16T21:03:12.248Z,67.00
2023-02-16T21:05:44.926Z,67.60
2023-02-16T21:08:17.174Z,68.60
2023-02-16T21:10:49.543Z,69.40
2023-02-16T21:13:22.257Z,60.20
2023-02-16T21:15:54.654Z,71.20
2023-02-16T21:18:26.701Z,59.60
2023-02-16T21:21:00.163Z,73.90
2023-02-16T21:23:32.805Z,61.10
2023-02-16T21:26:06.877Z,67.40
2023-02-16T21:28:39.168Z,67.80
2023-02-16T21:31:14.268Z,59.60
2023-02-16T21:33:46.686Z,63.50
2023-02-16T21:36:20.600Z,64.00
2023-02-16T21:38:53.592Z,74.30
2023-02-16T21:41:29.332Z,69.50
2023-02-16T21:44:04.593Z,64.60
2023-02-16T21:46:39.153Z,76.70
2023-02-16T21:49:15.326Z,72.70
2023-02-16T21:51:49.385Z,77.30
2023-02-16T21:54:42.615Z,80.20
2023-02-16T21:57:15.364Z,88.00
2023-02-16T21:59:47.445Z,87.20
2023-02-16T22:02:19.511Z,95.40
2023-02-16T22:04:52.390Z,90.20
2023-02-16T22:07:24.602Z,75.80
2023-02-16T22:09:56.830Z,80.00
2023-02-16T22:12:29.508Z,79.20
2023-02-16T22:15:01.787Z,73.70
2023-02-16T22:17:35.111Z,77.30
2023-02-16T22:20:09.298Z,64.70
2023-02-16T22:22:41.463Z,67.50
2023-02-16T22:25:14.384Z,61.50
2023-02-16T22:27:46.510Z,76.00
2023-02-16T22:30:18.955Z,78.60
2023-02-16T22:32:52.121Z,69.30
2023-02-16T22:35:24.389Z,68.30
2023-02-16T22:37:56.727Z,75.40
2023-02-16T22:40:28.822Z,70.60
2023-02-16T22:43:00.886Z,74.50
2023-02-16T22:45:34.720Z,73.10
2023-02-16T22:48:07.282Z,66.00
2023-02-16T22:50:39.372Z,66.40
2023-02-16T22:53:11.519Z,79.60
2023-02-16T22:55:45.858Z,81.00
2023-02-16T22:58:18.146Z,69.00
2023-02-16T23:00:51.830Z,66.40
2023-02-16T23:03:24.985Z,65.50
2023-02-16T23:05:57.570Z,66.70
2023-02-16T23:08:30.194Z,67.30
2023-02-16T23:11:06.723Z,61.50
2023-02-16T23:13:39.249Z,69.30
2023-02-16T23:16:15.200Z,67.80
2023-02-16T23:18:48.868Z,65.10
2023-02-16T23:21:23.572Z,65.50
2023-02-16T23:23:56.910Z,67.30
2023-02-16T23:26:31.355Z,68.90
2023-02-16T23:29:07.381Z,61.90
2023-02-16T23:31:40.755Z,63.10
2023-02-16T23:34:14.419Z,63.30
2023-02-16T23:36:46.859Z,65.30
2023-02-16T23:39:20.389Z,71.20
2023-02-16T23:41:52.639Z,71.30
2023-02-16T23:44:24.897Z,60.70
2023-02-16T23:46:57.357Z,55.70
2023-02-16T23:49:30.251Z,62.80
2023-02-16T23:52:02.387Z,60.80
2023-02-16T23:54:34.823Z,57.40
2023-02-16T23:57:08.465Z,58.30
2023-02-16T23:59:40.989Z,61.00
